| time (UTC) | temp F | wind direction | speed MPH | gust MPH | rain 1hr in | rain 24hr in | rain mn in | humidity % | barometer mb |
| 20260906042131 | 50 | 353 | 20.0 | 26.0 | 0.00 | 0.00 | 0.00 | 83 | 1006.3 |
| 20260906040500 | 49 | 353 | 20.0 | 29.0 | 0.00 | 0.00 | 0.00 | 85 | 1005.9 |
| 20260906034131 | 50 | 345 | 21.0 | 27.0 | 0.00 | 0.00 | 0.00 | 85 | 1005.6 |
| 20260906032459 | 50 | 340 | 22.0 | 31.0 | 0.00 | 0.00 | 0.00 | 85 | 1005.4 |
| 20260906022501 | 51 | 345 | 20.0 | 26.0 | 0.00 | 0.00 | 0.00 | 83 | 1004.7 |
| 20260906020130 | 51 | 350 | 19.0 | 23.0 | 0.00 | 0.00 | 0.00 | 83 | 1004.5 |
| 20260906012131 | 51 | 346 | 23.0 | 29.0 | 0.00 | 0.00 | 0.00 | 81 | 1004.0 |
| 20260906010501 | 52 | 344 | 21.0 | 28.0 | 0.00 | 0.00 | 0.00 | 80 | 1003.8 |
| 20260906004502 | 52 | 345 | 22.0 | 29.0 | 0.00 | 0.00 | 0.00 | 79 | 1003.5 |
| 20260906002130 | 52 | 341 | 24.0 | 30.0 | 0.00 | 0.00 | 0.00 | 78 | 1003.2 |
| 20260906000457 | 53 | 339 | 20.0 | 26.0 | 0.00 | 0.00 | 0.00 | 80 | 1003.0 |
| 20260905234500 | 54 | 350 | 18.0 | 25.0 | 0.00 | 0.00 | 0.00 | 80 | 1002.7 |
| 20260905232459 | 55 | 344 | 16.0 | 22.0 | 0.00 | 0.00 | 0.00 | 82 | 1002.3 |
| 20260905230500 | 56 | 352 | 15.0 | 20.0 | 0.00 | 0.00 | 0.00 | 78 | 1002.1 |
| 20260905224131 | 56 | 3 | 17.0 | 22.0 | 0.00 | 0.00 | 0.00 | 75 | 1001.8 |
| 20260905222500 | 57 | 8 | 17.0 | 22.0 | 0.00 | 0.00 | 0.00 | 77 | 1001.6 |
| 20260905220500 | 57 | 351 | 15.0 | 21.0 | 0.00 | 0.00 | 0.00 | 79 | 1001.4 |
| 20260905214500 | 58 | 343 | 17.0 | 21.0 | 0.00 | 0.00 | 0.00 | 80 | 1001.2 |
| 20260905212130 | 59 | 334 | 15.0 | 19.0 | 0.00 | 0.00 | 0.00 | 80 | 1001.0 |
| 20260905210456 | 59 | 326 | 15.0 | 19.0 | 0.00 | 0.00 | 0.00 | 79 | 1000.9 |
| 20260905202459 | 59 | 319 | 13.0 | 15.0 | 0.00 | 0.00 | 0.00 | 77 | 1000.5 |
| 20260905200500 | 60 | 318 | 12.0 | 16.0 | 0.00 | 0.00 | 0.00 | 76 | 1000.3 |
| 20260905194129 | 60 | 312 | 12.0 | 16.0 | 0.00 | 0.00 | 0.00 | 77 | 1000.1 |
| 20260905192130 | 60 | 308 | 12.0 | 14.0 | 0.00 | 0.00 | 0.00 | 77 | 1000.1 |
| 20260905190130 | 60 | 308 | 12.0 | 15.0 | 0.00 | 0.00 | 0.00 | 76 | 1000.0 |
| 20260905184459 | 60 | 309 | 13.0 | 16.0 | 0.00 | 0.00 | 0.00 | 74 | 999.9 |
| 20260905182458 | 60 | 312 | 12.0 | 16.0 | 0.00 | 0.00 | 0.00 | 74 | 999.8 |
| 20260905180455 | 60 | 308 | 15.0 | 18.0 | 0.00 | 0.00 | 0.00 | 72 | 999.5 |
| 20260905174455 | 60 | 307 | 15.0 | 18.0 | 0.00 | 0.00 | 0.00 | 71 | 999.4 |
| 20260905172457 | 61 | 310 | 16.0 | 20.0 | 0.00 | 0.00 | 0.00 | 71 | 999.2 |
| 20260905170458 | 62 | 309 | 16.0 | 21.0 | 0.00 | 0.00 | 0.00 | 64 | 998.5 |
| 20260905164459 | 61 | 308 | 17.0 | 20.0 | 0.00 | 0.00 | 0.00 | 68 | 998.8 |
| 20260905162130 | 62 | 309 | 16.0 | 21.0 | 0.00 | 0.00 | 0.00 | 64 | 998.5 |
| 20260905160457 | 62 | 309 | 18.0 | 23.0 | 0.00 | 0.00 | 0.00 | 65 | 998.3 |
| 20260905154130 | 62 | 304 | 19.0 | 24.0 | 0.00 | 0.00 | 0.00 | 62 | 998.0 |
| 20260905152130 | 63 | 302 | 17.0 | 22.0 | 0.00 | 0.00 | 0.00 | 60 | 998.0 |
| 20260905150457 | 64 | 292 | 17.0 | 23.0 | 0.00 | 0.00 | 0.00 | 60 | 997.7 |
| 20260905142458 | 63 | 288 | 17.0 | 21.0 | 0.00 | 0.00 | 0.00 | 63 | 997.5 |
| 20260905140457 | 63 | 290 | 16.0 | 19.0 | 0.00 | 0.00 | 0.00 | 61 | 997.4 |
| 20260905134456 | 63 | 287 | 14.0 | 18.0 | 0.00 | 0.00 | 0.00 | 61 | 997.3 |
| 20260905132129 | 62 | 263 | 14.0 | 17.0 | 0.00 | 0.00 | 0.00 | 67 | 997.2 |
| 20260905130501 | 64 | 261 | 10.0 | 11.0 | 0.00 | 0.00 | 0.00 | 65 | 997.1 |
| 20260905124457 | 62 | 260 | 11.0 | 13.0 | 0.00 | 0.00 | 0.00 | 69 | 997.0 |
| 20260905122455 | 62 | 261 | 10.0 | 12.0 | 0.00 | 0.00 | 0.00 | 66 | 996.9 |
| 20260905120457 | 61 | 267 | 9.0 | 11.0 | 0.00 | 0.00 | 0.00 | 64 | 996.8 |
| 20260905114127 | 61 | 259 | 10.0 | 12.0 | 0.00 | 0.00 | 0.00 | 65 | 996.8 |
| 20260905112458 | 61 | 262 | 8.0 | 10.0 | 0.00 | 0.00 | 0.00 | 63 | 996.7 |
| 20260905110456 | 61 | 257 | 7.0 | 9.0 | 0.00 | 0.00 | 0.00 | 67 | 996.5 |
| 20260905104458 | 60 | 273 | 8.0 | 10.0 | 0.00 | 0.00 | 0.00 | 65 | 996.4 |
| 20260905102458 | 61 | 277 | 6.0 | 10.0 | 0.00 | 0.00 | 0.00 | 68 | 996.0 |
| 20260905100457 | 61 | 287 | 7.0 | 9.0 | 0.00 | 0.00 | 0.00 | 67 | 996.0 |
| 20260905094456 | 60 | 293 | 7.0 | 9.0 | 0.00 | 0.00 | 0.00 | 67 | 995.8 |
| 20260905092457 | 60 | 313 | 6.0 | 9.0 | 0.00 | 0.00 | 0.00 | 70 | 995.7 |
| 20260905090457 | 59 | 328 | 8.0 | 11.0 | 0.00 | 0.00 | 0.00 | 72 | 995.6 |
| 20260905084458 | 58 | 334 | 9.0 | 13.0 | 0.00 | 0.00 | 0.00 | 70 | 995.5 |
| 20260905080126 | 57 | 333 | 9.0 | 11.0 | 0.00 | 0.00 | 0.00 | 78 | 995.0 |
| 20260905074454 | 57 | 333 | 8.0 | 11.0 | 0.00 | 0.00 | 0.00 | 79 | 995.0 |
| 20260905072455 | 57 | 336 | 7.0 | 10.0 | 0.00 | 0.00 | 0.00 | 81 | 994.9 |
| 20260905064127 | 56 | 335 | 6.0 | 9.0 | 0.00 | 0.00 | 0.00 | 81 | 994.7 |
| 20260905062126 | 56 | 341 | 5.0 | 7.0 | 0.00 | 0.00 | 0.00 | 80 | 994.5 |
| 20260905060456 | 55 | 2 | 5.0 | 7.0 | 0.00 | 0.00 | 0.00 | 81 | 994.5 |
| 20260905054127 | 55 | 347 | 3.0 | 4.0 | 0.00 | 0.00 | 0.00 | 83 | 994.4 |
| 20260905052454 | 55 | 16 | 4.0 | 6.0 | 0.00 | 0.00 | 0.00 | 81 | 994.4 |
| 20260905050455 | 55 | 16 | 3.0 | 5.0 | 0.00 | 0.00 | 0.00 | 86 | 994.4 |
| 20260905044456 | 55 | 14 | 5.0 | 6.0 | 0.00 | 0.00 | 0.00 | 86 | 994.4 |